sensor_id;sensor_type;location;lat;lon;timestamp;pressure;altitude;pressure_sealevel;temperature
59339;BMP280;45117;50.960;5.500;2023-03-04T00:00:48;101719.25;;;2.14
59339;BMP280;45117;50.960;5.500;2023-03-04T00:03:14;101718.97;;;2.15
59339;BMP280;45117;50.960;5.500;2023-03-04T00:05:41;101719.75;;;2.16
59339;BMP280;45117;50.960;5.500;2023-03-04T00:08:07;101720.97;;;2.18
59339;BMP280;45117;50.960;5.500;2023-03-04T00:10:35;101724.72;;;2.17
59339;BMP280;45117;50.960;5.500;2023-03-04T00:13:02;101726.91;;;2.15
59339;BMP280;45117;50.960;5.500;2023-03-04T00:15:28;101723.16;;;2.16
59339;BMP280;45117;50.960;5.500;2023-03-04T00:17:55;101721.28;;;2.17
59339;BMP280;45117;50.960;5.500;2023-03-04T00:20:21;101720.03;;;2.14
59339;BMP280;45117;50.960;5.500;2023-03-04T00:22:48;101723.63;;;2.18
59339;BMP280;45117;50.960;5.500;2023-03-04T00:25:14;101719.91;;;2.19
59339;BMP280;45117;50.960;5.500;2023-03-04T00:27:42;101707.13;;;2.21
59339;BMP280;45117;50.960;5.500;2023-03-04T00:30:10;101709.16;;;2.24
59339;BMP280;45117;50.960;5.500;2023-03-04T00:32:36;101706.69;;;2.28
59339;BMP280;45117;50.960;5.500;2023-03-04T00:35:04;101703.38;;;2.31
59339;BMP280;45117;50.960;5.500;2023-03-04T00:37:30;101704.16;;;2.32
59339;BMP280;45117;50.960;5.500;2023-03-04T00:39:57;101704.31;;;2.35
59339;BMP280;45117;50.960;5.500;2023-03-04T00:42:23;101699.66;;;2.32
59339;BMP280;45117;50.960;5.500;2023-03-04T00:44:51;101701.69;;;2.35
59339;BMP280;45117;50.960;5.500;2023-03-04T00:47:18;101708.22;;;2.38
59339;BMP280;45117;50.960;5.500;2023-03-04T00:49:44;101714.00;;;2.40
59339;BMP280;45117;50.960;5.500;2023-03-04T00:52:11;101706.38;;;2.38
59339;BMP280;45117;50.960;5.500;2023-03-04T00:54:37;101705.28;;;2.39
59339;BMP280;45117;50.960;5.500;2023-03-04T00:57:04;101702.94;;;2.38
59339;BMP280;45117;50.960;5.500;2023-03-04T00:59:30;101705.59;;;2.38
59339;BMP280;45117;50.960;5.500;2023-03-04T01:01:58;101704.50;;;2.39
59339;BMP280;45117;50.960;5.500;2023-03-04T01:04:24;101702.94;;;2.38
59339;BMP280;45117;50.960;5.500;2023-03-04T01:06:51;101703.28;;;2.45
59339;BMP280;45117;50.960;5.500;2023-03-04T01:09:18;101697.97;;;2.45
59339;BMP280;45117;50.960;5.500;2023-03-04T01:11:44;101704.81;;;2.46
59339;BMP280;45117;50.960;5.500;2023-03-04T01:14:11;101701.56;;;2.49
59339;BMP280;45117;50.960;5.500;2023-03-04T01:16:37;101698.91;;;2.49
59339;BMP280;45117;50.960;5.500;2023-03-04T01:19:05;101703.41;;;2.48
59339;BMP280;45117;50.960;5.500;2023-03-04T01:21:31;101697.50;;;2.51
59339;BMP280;45117;50.960;5.500;2023-03-04T01:23:58;101697.50;;;2.51
59339;BMP280;45117;50.960;5.500;2023-03-04T01:26:24;101696.13;;;2.54
59339;BMP280;45117;50.960;5.500;2023-03-04T01:28:51;101694.84;;;2.51
59339;BMP280;45117;50.960;5.500;2023-03-04T01:31:17;101690.81;;;2.54
59339;BMP280;45117;50.960;5.500;2023-03-04T01:33:44;101693.47;;;2.54
59339;BMP280;45117;50.960;5.500;2023-03-04T01:36:12;101689.28;;;2.53
59339;BMP280;45117;50.960;5.500;2023-03-04T01:38:38;101678.19;;;2.51
59339;BMP280;45117;50.960;5.500;2023-03-04T01:41:05;101684.41;;;2.55
59339;BMP280;45117;50.960;5.500;2023-03-04T01:43:34;101684.59;;;2.59
59339;BMP280;45117;50.960;5.500;2023-03-04T01:46:01;101680.06;;;2.59
59339;BMP280;45117;50.960;5.500;2023-03-04T01:48:31;101675.84;;;2.58
59339;BMP280;45117;50.960;5.500;2023-03-04T01:51:00;101680.38;;;2.58
59339;BMP280;45117;50.960;5.500;2023-03-04T01:53:30;101672.13;;;2.59
59339;BMP280;45117;50.960;5.500;2023-03-04T01:56:00;101675.09;;;2.58
59339;BMP280;45117;50.960;5.500;2023-03-04T01:58:30;101676.63;;;2.59
59339;BMP280;45117;50.960;5.500;2023-03-04T02:00:57;101672.91;;;2.60
59339;BMP280;45117;50.960;5.500;2023-03-04T02:03:24;101665.72;;;2.60
59339;BMP280;45117;50.960;5.500;2023-03-04T02:05:51;101673.47;;;2.65
59339;BMP280;45117;50.960;5.500;2023-03-04T02:08:20;101663.69;;;2.66
59339;BMP280;45117;50.960;5.500;2023-03-04T02:10:49;101656.50;;;2.66
59339;BMP280;45117;50.960;5.500;2023-03-04T02:13:16;101655.72;;;2.66
59339;BMP280;45117;50.960;5.500;2023-03-04T02:15:44;101651.06;;;2.63
59339;BMP280;45117;50.960;5.500;2023-03-04T02:18:13;101648.75;;;2.61
59339;BMP280;45117;50.960;5.500;2023-03-04T02:20:47;101639.03;;;2.65
59339;BMP280;45117;50.960;5.500;2023-03-04T02:23:17;101635.94;;;2.63
59339;BMP280;45117;50.960;5.500;2023-03-04T02:25:51;101635.31;;;2.66
59339;BMP280;45117;50.960;5.500;2023-03-04T02:28:21;101628.00;;;2.63
59339;BMP280;45117;50.960;5.500;2023-03-04T02:30:48;101634.66;;;2.69
59339;BMP280;45117;50.960;5.500;2023-03-04T02:33:16;101630.63;;;2.72
59339;BMP280;45117;50.960;5.500;2023-03-04T02:35:43;101624.72;;;2.75
59339;BMP280;45117;50.960;5.500;2023-03-04T02:38:10;101628.91;;;2.76
59339;BMP280;45117;50.960;5.500;2023-03-04T02:40:36;101623.16;;;2.83
59339;BMP280;45117;50.960;5.500;2023-03-04T02:43:04;101626.09;;;2.81
59339;BMP280;45117;50.960;5.500;2023-03-04T02:45:41;101621.56;;;2.82
59339;BMP280;45117;50.960;5.500;2023-03-04T02:48:08;101622.34;;;2.82
59339;BMP280;45117;50.960;5.500;2023-03-04T02:50:39;101619.69;;;2.82
59339;BMP280;45117;50.960;5.500;2023-03-04T02:53:06;101619.41;;;2.84
59339;BMP280;45117;50.960;5.500;2023-03-04T02:55:33;101616.75;;;2.84
59339;BMP280;45117;50.960;5.500;2023-03-04T02:58:00;101618.28;;;2.85
59339;BMP280;45117;50.960;5.500;2023-03-04T03:00:27;101618.91;;;2.82
59339;BMP280;45117;50.960;5.500;2023-03-04T03:02:55;101615.66;;;2.85
59339;BMP280;45117;50.960;5.500;2023-03-04T03:05:23;101615.03;;;2.88
59339;BMP280;45117;50.960;5.500;2023-03-04T03:07:50;101612.69;;;2.86
59339;BMP280;45117;50.960;5.500;2023-03-04T03:10:17;101614.25;;;2.87
59339;BMP280;45117;50.960;5.500;2023-03-04T03:12:43;101615.03;;;2.88
59339;BMP280;45117;50.960;5.500;2023-03-04T03:15:10;101606.59;;;2.86
59339;BMP280;45117;50.960;5.500;2023-03-04T03:17:37;101607.06;;;2.88
59339;BMP280;45117;50.960;5.500;2023-03-04T03:20:06;101606.75;;;2.89
59339;BMP280;45117;50.960;5.500;2023-03-04T03:22:33;101611.44;;;2.92
59339;BMP280;45117;50.960;5.500;2023-03-04T03:24:59;101603.47;;;2.92
59339;BMP280;45117;50.960;5.500;2023-03-04T03:27:26;101606.44;;;2.91
59339;BMP280;45117;50.960;5.500;2023-03-04T03:29:52;101602.22;;;2.90
59339;BMP280;45117;50.960;5.500;2023-03-04T03:32:19;101596.31;;;2.93
59339;BMP280;45117;50.960;5.500;2023-03-04T03:34:45;101596.31;;;2.93
59339;BMP280;45117;50.960;5.500;2023-03-04T03:37:13;101592.88;;;2.92
59339;BMP280;45117;50.960;5.500;2023-03-04T03:39:40;101607.34;;;2.95
59339;BMP280;45117;50.960;5.500;2023-03-04T03:42:07;101600.97;;;2.96
59339;BMP280;45117;50.960;5.500;2023-03-04T03:44:33;101598.63;;;2.94
59339;BMP280;45117;50.960;5.500;2023-03-04T03:47:00;101603.28;;;2.97
59339;BMP280;45117;50.960;5.500;2023-03-04T03:49:26;101595.03;;;2.90
59339;BMP280;45117;50.960;5.500;2023-03-04T03:51:53;101602.50;;;2.97
59339;BMP280;45117;50.960;5.500;2023-03-04T03:54:21;101611.22;;;3.06
59339;BMP280;45117;50.960;5.500;2023-03-04T03:56:47;101609.81;;;3.09
59339;BMP280;45117;50.960;5.500;2023-03-04T03:59:14;101599.66;;;3.11
59339;BMP280;45117;50.960;5.500;2023-03-04T04:01:40;101604.81;;;3.07
59339;BMP280;45117;50.960;5.500;2023-03-04T04:04:07;101607.63;;;3.11
59339;BMP280;45117;50.960;5.500;2023-03-04T04:06:33;101607.94;;;3.09
59339;BMP280;45117;50.960;5.500;2023-03-04T04:09:00;101606.19;;;3.22
59339;BMP280;45117;50.960;5.500;2023-03-04T04:11:28;101597.31;;;3.18
59339;BMP280;45117;50.960;5.500;2023-03-04T04:13:54;101601.16;;;3.29
59339;BMP280;45117;50.960;5.500;2023-03-04T04:16:21;101606.44;;;3.38
59339;BMP280;45117;50.960;5.500;2023-03-04T04:18:47;101605.97;;;3.36
59339;BMP280;45117;50.960;5.500;2023-03-04T04:21:14;101607.47;;;3.45
59339;BMP280;45117;50.960;5.500;2023-03-04T04:23:41;101607.75;;;3.52
59339;BMP280;45117;50.960;5.500;2023-03-04T04:26:07;101612.94;;;3.49
59339;BMP280;45117;50.960;5.500;2023-03-04T04:28:35;101610.53;;;3.56
59339;BMP280;45117;50.960;5.500;2023-03-04T04:31:01;101612.44;;;3.55
59339;BMP280;45117;50.960;5.500;2023-03-04T04:33:28;101608.22;;;3.54
59339;BMP280;45117;50.960;5.500;2023-03-04T04:35:54;101604.41;;;3.64
59339;BMP280;45117;50.960;5.500;2023-03-04T04:38:21;101610.03;;;3.71
59339;BMP280;45117;50.960;5.500;2023-03-04T04:40:48;101602.69;;;3.68
59339;BMP280;45117;50.960;5.500;2023-03-04T04:43:15;101605.59;;;3.75
59339;BMP280;45117;50.960;5.500;2023-03-04T04:45:44;101604.06;;;3.74
59339;BMP280;45117;50.960;5.500;2023-03-04T04:48:10;101613.91;;;3.74
59339;BMP280;45117;50.960;5.500;2023-03-04T04:50:37;101608.00;;;3.68
59339;BMP280;45117;50.960;5.500;2023-03-04T04:53:03;101615.19;;;3.68
59339;BMP280;45117;50.960;5.500;2023-03-04T04:55:30;101613.13;;;3.73
59339;BMP280;45117;50.960;5.500;2023-03-04T04:57:56;101612.00;;;3.74
59339;BMP280;45117;50.960;5.500;2023-03-04T05:00:23;101611.69;;;3.76
59339;BMP280;45117;50.960;5.500;2023-03-04T05:02:51;101618.53;;;3.77
59339;BMP280;45117;50.960;5.500;2023-03-04T05:05:17;101614.94;;;3.81
59339;BMP280;45117;50.960;5.500;2023-03-04T05:07:44;101618.84;;;3.84
59339;BMP280;45117;50.960;5.500;2023-03-04T05:10:10;101622.06;;;3.90
59339;BMP280;45117;50.960;5.500;2023-03-04T05:12:37;101626.59;;;3.89
59339;BMP280;45117;50.960;5.500;2023-03-04T05:15:04;101626.13;;;3.87
59339;BMP280;45117;50.960;5.500;2023-03-04T05:17:31;101625.34;;;3.87
59339;BMP280;45117;50.960;5.500;2023-03-04T05:19:58;101623.19;;;3.89
59339;BMP280;45117;50.960;5.500;2023-03-04T05:22:25;101613.66;;;3.88
59339;BMP280;45117;50.960;5.500;2023-03-04T05:24:51;101624.09;;;3.93
59339;BMP280;45117;50.960;5.500;2023-03-04T05:27:18;101623.19;;;3.89
59339;BMP280;45117;50.960;5.500;2023-03-04T05:29:44;101618.16;;;3.87
59339;BMP280;45117;50.960;5.500;2023-03-04T05:32:11;101610.34;;;3.91
59339;BMP280;45117;50.960;5.500;2023-03-04T05:34:37;101620.97;;;3.91
59339;BMP280;45117;50.960;5.500;2023-03-04T05:37:05;101615.22;;;3.89
59339;BMP280;45117;50.960;5.500;2023-03-04T05:39:32;101610.81;;;3.93
59339;BMP280;45117;50.960;5.500;2023-03-04T05:41:58;101611.13;;;3.91
59339;BMP280;45117;50.960;5.500;2023-03-04T05:44:25;101613.47;;;3.93
59339;BMP280;45117;50.960;5.500;2023-03-04T05:46:51;101621.44;;;3.93
59339;BMP280;45117;50.960;5.500;2023-03-04T05:49:18;101615.66;;;3.91
59339;BMP280;45117;50.960;5.500;2023-03-04T05:51:44;101616.13;;;3.93
59339;BMP280;45117;50.960;5.500;2023-03-04T05:54:12;101621.59;;;3.96
59339;BMP280;45117;50.960;5.500;2023-03-04T05:56:39;101620.13;;;3.99
59339;BMP280;45117;50.960;5.500;2023-03-04T05:59:05;101618.13;;;3.96
59339;BMP280;45117;50.960;5.500;2023-03-04T06:01:32;101620.66;;;3.92
59339;BMP280;45117;50.960;5.500;2023-03-04T06:03:58;101617.25;;;3.92
59339;BMP280;45117;50.960;5.500;2023-03-04T06:06:25;101617.53;;;3.90
59339;BMP280;45117;50.960;5.500;2023-03-04T06:08:51;101621.13;;;3.94
59339;BMP280;45117;50.960;5.500;2023-03-04T06:11:19;101625.44;;;3.99
59339;BMP280;45117;50.960;5.500;2023-03-04T06:13:46;101631.84;;;3.98
59339;BMP280;45117;50.960;5.500;2023-03-04T06:16:12;101623.44;;;3.96
59339;BMP280;45117;50.960;5.500;2023-03-04T06:18:39;101621.66;;;4.00
59339;BMP280;45117;50.960;5.500;2023-03-04T06:21:05;101634.50;;;3.98
59339;BMP280;45117;50.960;5.500;2023-03-04T06:23:32;101632.63;;;3.98
59339;BMP280;45117;50.960;5.500;2023-03-04T06:25:59;101635.75;;;4.00
59339;BMP280;45117;50.960;5.500;2023-03-04T06:28:27;101636.97;;;4.03
59339;BMP280;45117;50.960;5.500;2023-03-04T06:30:55;101636.06;;;3.99
59339;BMP280;45117;50.960;5.500;2023-03-04T06:33:22;101641.50;;;4.02
59339;BMP280;45117;50.960;5.500;2023-03-04T06:35:52;101639.94;;;4.01
59339;BMP280;45117;50.960;5.500;2023-03-04T06:38:19;101635.28;;;3.98
59339;BMP280;45117;50.960;5.500;2023-03-04T06:40:46;101647.16;;;4.01
59339;BMP280;45117;50.960;5.500;2023-03-04T06:43:12;101649.13;;;4.04
59339;BMP280;45117;50.960;5.500;2023-03-04T06:45:40;101643.81;;;4.04
59339;BMP280;45117;50.960;5.500;2023-03-04T06:48:06;101653.81;;;4.07
59339;BMP280;45117;50.960;5.500;2023-03-04T06:50:33;101658.34;;;4.06
59339;BMP280;45117;50.960;5.500;2023-03-04T06:52:59;101650.06;;;4.08
59339;BMP280;45117;50.960;5.500;2023-03-04T06:55:26;101656.28;;;4.12
59339;BMP280;45117;50.960;5.500;2023-03-04T06:57:52;101656.28;;;4.12
59339;BMP280;45117;50.960;5.500;2023-03-04T07:00:19;101659.28;;;4.10
59339;BMP280;45117;50.960;5.500;2023-03-04T07:02:50;101664.50;;;4.19
59339;BMP280;45117;50.960;5.500;2023-03-04T07:05:17;101668.72;;;4.20
59339;BMP280;45117;50.960;5.500;2023-03-04T07:07:43;101669.19;;;4.22
59339;BMP280;45117;50.960;5.500;2023-03-04T07:10:10;101666.53;;;4.22
59339;BMP280;45117;50.960;5.500;2023-03-04T07:12:37;101666.66;;;4.26
59339;BMP280;45117;50.960;5.500;2023-03-04T07:15:04;101666.34;;;4.27
59339;BMP280;45117;50.960;5.500;2023-03-04T07:17:31;101672.56;;;4.31
59339;BMP280;45117;50.960;5.500;2023-03-04T07:20:00;101676.63;;;4.29
59339;BMP280;45117;50.960;5.500;2023-03-04T07:22:27;101679.13;;;4.34
59339;BMP280;45117;50.960;5.500;2023-03-04T07:24:53;101677.69;;;4.36
59339;BMP280;45117;50.960;5.500;2023-03-04T07:27:20;101671.25;;;4.38
59339;BMP280;45117;50.960;5.500;2023-03-04T07:29:46;101677.81;;;4.40
59339;BMP280;45117;50.960;5.500;2023-03-04T07:32:12;101679.03;;;4.43
59339;BMP280;45117;50.960;5.500;2023-03-04T07:34:39;101686.34;;;4.46
59339;BMP280;45117;50.960;5.500;2023-03-04T07:37:07;101682.28;;;4.48
59339;BMP280;45117;50.960;5.500;2023-03-04T07:39:33;101681.94;;;4.50
59339;BMP280;45117;50.960;5.500;2023-03-04T07:42:00;101683.53;;;4.51
59339;BMP280;45117;50.960;5.500;2023-03-04T07:44:26;101681.78;;;4.55
59339;BMP280;45117;50.960;5.500;2023-03-04T07:46:53;101678.78;;;4.56
59339;BMP280;45117;50.960;5.500;2023-03-04T07:49:20;101683.09;;;4.61
59339;BMP280;45117;50.960;5.500;2023-03-04T07:51:47;101689.19;;;4.61
59339;BMP280;45117;50.960;5.500;2023-03-04T07:54:15;101684.00;;;4.65
59339;BMP280;45117;50.960;5.500;2023-03-04T07:56:44;101689.47;;;4.69
59339;BMP280;45117;50.960;5.500;2023-03-04T07:59:10;101693.81;;;4.73
59339;BMP280;45117;50.960;5.500;2023-03-04T08:01:37;101695.81;;;4.76
59339;BMP280;45117;50.960;5.500;2023-03-04T08:04:05;101703.09;;;4.79
59339;BMP280;45117;50.960;5.500;2023-03-04T08:06:32;101706.38;;;4.85
59339;BMP280;45117;50.960;5.500;2023-03-04T08:09:00;101698.06;;;4.86
59339;BMP280;45117;50.960;5.500;2023-03-04T08:11:29;101693.31;;;4.92
59339;BMP280;45117;50.960;5.500;2023-03-04T08:13:56;101703.28;;;4.95
59339;BMP280;45117;50.960;5.500;2023-03-04T08:16:23;101711.38;;;4.99
59339;BMP280;45117;50.960;5.500;2023-03-04T08:18:52;101708.38;;;5.00
59339;BMP280;45117;50.960;5.500;2023-03-04T08:21:20;101706.50;;;5.01
59339;BMP280;45117;50.960;5.500;2023-03-04T08:23:47;101712.56;;;5.10
59339;BMP280;45117;50.960;5.500;2023-03-04T08:26:16;101717.44;;;5.20
59339;BMP280;45117;50.960;5.500;2023-03-04T08:28:45;101705.69;;;5.21
59339;BMP280;45117;50.960;5.500;2023-03-04T08:31:12;101712.38;;;5.27
59339;BMP280;45117;50.960;5.500;2023-03-04T08:33:38;101718.09;;;5.29
59339;BMP280;45117;50.960;5.500;2023-03-04T08:36:06;101715.56;;;5.33
59339;BMP280;45117;50.960;5.500;2023-03-04T08:38:32;101715.13;;;5.31
59339;BMP280;45117;50.960;5.500;2023-03-04T08:40:59;101721.34;;;5.35
59339;BMP280;45117;50.960;5.500;2023-03-04T08:43:27;101719.25;;;5.40
59339;BMP280;45117;50.960;5.500;2023-03-04T08:45:55;101725.88;;;5.47
59339;BMP280;45117;50.960;5.500;2023-03-04T08:48:22;101718.03;;;5.50
59339;BMP280;45117;50.960;5.500;2023-03-04T08:50:49;101727.00;;;5.46
59339;BMP280;45117;50.960;5.500;2023-03-04T08:53:16;101723.91;;;5.56
59339;BMP280;45117;50.960;5.500;2023-03-04T08:55:43;101717.38;;;5.65
59339;BMP280;45117;50.960;5.500;2023-03-04T08:58:10;101723.81;;;5.64
59339;BMP280;45117;50.960;5.500;2023-03-04T09:00:40;101721.72;;;5.70
59339;BMP280;45117;50.960;5.500;2023-03-04T09:03:09;101729.47;;;5.75
59339;BMP280;45117;50.960;5.500;2023-03-04T09:05:36;101720.94;;;5.69
59339;BMP280;45117;50.960;5.500;2023-03-04T09:08:03;101716.03;;;5.72
59339;BMP280;45117;50.960;5.500;2023-03-04T09:10:30;101715.38;;;5.75
59339;BMP280;45117;50.960;5.500;2023-03-04T09:12:57;101715.59;;;5.82
59339;BMP280;45117;50.960;5.500;2023-03-04T09:15:23;101714.38;;;5.79
59339;BMP280;45117;50.960;5.500;2023-03-04T09:17:50;101713.59;;;5.79
59339;BMP280;45117;50.960;5.500;2023-03-04T09:20:18;101726.34;;;5.97
59339;BMP280;45117;50.960;5.500;2023-03-04T09:22:45;101719.22;;;6.02
59339;BMP280;45117;50.960;5.500;2023-03-04T09:25:13;101720.81;;;5.90
59339;BMP280;45117;50.960;5.500;2023-03-04T09:27:40;101724.16;;;5.75
59339;BMP280;45117;50.960;5.500;2023-03-04T09:30:08;101721.22;;;5.80
59339;BMP280;45117;50.960;5.500;2023-03-04T09:32:35;101723.91;;;5.80
59339;BMP280;45117;50.960;5.500;2023-03-04T09:35:02;101717.91;;;5.83
59339;BMP280;45117;50.960;5.500;2023-03-04T09:37:30;101711.81;;;5.95
59339;BMP280;45117;50.960;5.500;2023-03-04T09:39:56;101718.69;;;5.96
59339;BMP280;45117;50.960;5.500;2023-03-04T09:42:25;101718.47;;;5.89
59339;BMP280;45117;50.960;5.500;2023-03-04T09:44:52;101714.88;;;6.09
59339;BMP280;45117;50.960;5.500;2023-03-04T09:47:21;101714.13;;;5.96
59339;BMP280;45117;50.960;5.500;2023-03-04T09:49:53;101710.44;;;6.13
59339;BMP280;45117;50.960;5.500;2023-03-04T09:52:32;101710.25;;;6.34
59339;BMP280;45117;50.960;5.500;2023-03-04T09:55:14;101706.53;;;6.51
59339;BMP280;45117;50.960;5.500;2023-03-04T09:57:47;101701.81;;;6.44
59339;BMP280;45117;50.960;5.500;2023-03-04T10:00:19;101705.06;;;6.66
59339;BMP280;45117;50.960;5.500;2023-03-04T10:03:03;101706.34;;;6.72
59339;BMP280;45117;50.960;5.500;2023-03-04T10:05:32;101696.13;;;6.90
59339;BMP280;45117;50.960;5.500;2023-03-04T10:08:08;101700.63;;;7.17
59339;BMP280;45117;50.960;5.500;2023-03-04T10:10:39;101701.75;;;7.00
59339;BMP280;45117;50.960;5.500;2023-03-04T10:13:13;101699.16;;;7.04
59339;BMP280;45117;50.960;5.500;2023-03-04T10:15:43;101696.41;;;7.32
59339;BMP280;45117;50.960;5.500;2023-03-04T10:18:13;101684.63;;;7.17
59339;BMP280;45117;50.960;5.500;2023-03-04T10:20:50;101690.81;;;7.21
59339;BMP280;45117;50.960;5.500;2023-03-04T10:23:22;101684.31;;;7.89
59339;BMP280;45117;50.960;5.500;2023-03-04T10:25:49;101685.72;;;7.83
59339;BMP280;45117;50.960;5.500;2023-03-04T10:28:20;101690.56;;;8.16
59339;BMP280;45117;50.960;5.500;2023-03-04T10:30:52;101680.22;;;7.95
59339;BMP280;45117;50.960;5.500;2023-03-04T10:33:24;101679.72;;;7.70
59339;BMP280;45117;50.960;5.500;2023-03-04T10:35:57;101681.63;;;7.70
59339;BMP280;45117;50.960;5.500;2023-03-04T10:38:28;101673.53;;;7.85
59339;BMP280;45117;50.960;5.500;2023-03-04T10:40:56;101680.94;;;7.57
59339;BMP280;45117;50.960;5.500;2023-03-04T10:43:23;101676.78;;;7.75
59339;BMP280;45117;50.960;5.500;2023-03-04T10:45:53;101676.97;;;7.86
59339;BMP280;45117;50.960;5.500;2023-03-04T10:48:22;101686.38;;;7.96
59339;BMP280;45117;50.960;5.500;2023-03-04T10:50:49;101682.41;;;8.28
59339;BMP280;45117;50.960;5.500;2023-03-04T10:53:30;101681.22;;;8.45
59339;BMP280;45117;50.960;5.500;2023-03-04T10:55:58;101679.97;;;8.20
59339;BMP280;45117;50.960;5.500;2023-03-04T10:58:26;101677.06;;;7.90
59339;BMP280;45117;50.960;5.500;2023-03-04T11:01:00;101679.34;;;7.88
59339;BMP280;45117;50.960;5.500;2023-03-04T11:03:29;101669.19;;;7.62
59339;BMP280;45117;50.960;5.500;2023-03-04T11:06:10;101669.38;;;7.69
59339;BMP280;45117;50.960;5.500;2023-03-04T11:08:40;101680.72;;;7.81
59339;BMP280;45117;50.960;5.500;2023-03-04T11:11:21;101672.41;;;7.67
59339;BMP280;45117;50.960;5.500;2023-03-04T11:13:55;101666.72;;;7.53
59339;BMP280;45117;50.960;5.500;2023-03-04T11:16:24;101666.81;;;7.56
59339;BMP280;45117;50.960;5.500;2023-03-04T11:18:52;101657.56;;;7.35
59339;BMP280;45117;50.960;5.500;2023-03-04T11:21:21;101670.63;;;7.24
59339;BMP280;45117;50.960;5.500;2023-03-04T11:23:52;101669.75;;;7.36
59339;BMP280;45117;50.960;5.500;2023-03-04T11:26:25;101661.50;;;7.41
59339;BMP280;45117;50.960;5.500;2023-03-04T11:28:59;101659.31;;;7.62
59339;BMP280;45117;50.960;5.500;2023-03-04T11:31:32;101653.00;;;7.70
59339;BMP280;45117;50.960;5.500;2023-03-04T11:34:02;101648.59;;;8.59
59339;BMP280;45117;50.960;5.500;2023-03-04T11:36:33;101650.13;;;8.83
59339;BMP280;45117;50.960;5.500;2023-03-04T11:39:03;101645.31;;;8.46
59339;BMP280;45117;50.960;5.500;2023-03-04T11:41:33;101641.19;;;8.29
59339;BMP280;45117;50.960;5.500;2023-03-04T11:44:00;101641.50;;;8.28
59339;BMP280;45117;50.960;5.500;2023-03-04T11:52:30;101648.41;;;7.71
59339;BMP280;45117;50.960;5.500;2023-03-04T11:55:15;101633.94;;;7.72
59339;BMP280;45117;50.960;5.500;2023-03-04T11:57:49;101633.25;;;7.75
59339;BMP280;45117;50.960;5.500;2023-03-04T12:00:28;101624.22;;;7.64
59339;BMP280;45117;50.960;5.500;2023-03-04T12:03:13;101624.13;;;7.60
59339;BMP280;45117;50.960;5.500;2023-03-04T12:05:51;101624.34;;;7.51
59339;BMP280;45117;50.960;5.500;2023-03-04T12:08:29;101623.00;;;7.42
59339;BMP280;45117;50.960;5.500;2023-03-04T12:11:04;101622.22;;;7.61
59339;BMP280;45117;50.960;5.500;2023-03-04T12:16:35;101601.16;;;8.13
59339;BMP280;45117;50.960;5.500;2023-03-04T12:19:21;101597.78;;;8.39
59339;BMP280;45117;50.960;5.500;2023-03-04T12:21:58;101591.38;;;8.21
59339;BMP280;45117;50.960;5.500;2023-03-04T12:24:44;101598.34;;;8.06
59339;BMP280;45117;50.960;5.500;2023-03-04T12:27:20;101596.63;;;8.18
59339;BMP280;45117;50.960;5.500;2023-03-04T12:29:55;101584.72;;;7.92
59339;BMP280;45117;50.960;5.500;2023-03-04T12:32:33;101591.03;;;7.84
59339;BMP280;45117;50.960;5.500;2023-03-04T12:35:13;101583.78;;;7.84
59339;BMP280;45117;50.960;5.500;2023-03-04T12:37:51;101581.31;;;7.95
59339;BMP280;45117;50.960;5.500;2023-03-04T12:40:26;101587.72;;;7.71
59339;BMP280;45117;50.960;5.500;2023-03-04T12:43:08;101578.94;;;7.71
59339;BMP280;45117;50.960;5.500;2023-03-04T12:45:44;101576.00;;;7.76
59339;BMP280;45117;50.960;5.500;2023-03-04T12:48:22;101570.78;;;7.83
59339;BMP280;45117;50.960;5.500;2023-03-04T12:51:00;101571.59;;;7.87
59339;BMP280;45117;50.960;5.500;2023-03-04T12:53:35;101564.03;;;7.89
59339;BMP280;45117;50.960;5.500;2023-03-04T12:56:03;101562.03;;;7.86
59339;BMP280;45117;50.960;5.500;2023-03-04T12:58:34;101562.50;;;7.88
59339;BMP280;45117;50.960;5.500;2023-03-04T13:01:06;101563.88;;;8.01
59339;BMP280;45117;50.960;5.500;2023-03-04T13:03:40;101560.34;;;7.97
59339;BMP280;45117;50.960;5.500;2023-03-04T13:06:14;101552.88;;;8.06
59339;BMP280;45117;50.960;5.500;2023-03-04T13:08:52;101551.81;;;8.11
59339;BMP280;45117;50.960;5.500;2023-03-04T13:11:39;101547.19;;;8.31
59339;BMP280;45117;50.960;5.500;2023-03-04T13:14:22;101543.84;;;8.37
59339;BMP280;45117;50.960;5.500;2023-03-04T13:16:51;101532.81;;;8.39
59339;BMP280;45117;50.960;5.500;2023-03-04T13:19:42;101531.81;;;8.74
59339;BMP280;45117;50.960;5.500;2023-03-04T13:22:28;101533.47;;;8.82
59339;BMP280;45117;50.960;5.500;2023-03-04T13:24:56;101530.28;;;8.73
59339;BMP280;45117;50.960;5.500;2023-03-04T13:27:45;101536.63;;;8.38
59339;BMP280;45117;50.960;5.500;2023-03-04T13:30:41;101533.28;;;8.45
59339;BMP280;45117;50.960;5.500;2023-03-04T13:33:44;101531.38;;;8.45
59339;BMP280;45117;50.960;5.500;2023-03-04T13:36:26;101522.44;;;8.34
59339;BMP280;45117;50.960;5.500;2023-03-04T13:38:57;101531.06;;;8.27
59339;BMP280;45117;50.960;5.500;2023-03-04T13:41:28;101528.34;;;8.24
59339;BMP280;45117;50.960;5.500;2023-03-04T13:43:56;101520.50;;;8.11
59339;BMP280;45117;50.960;5.500;2023-03-04T13:46:48;101528.41;;;8.04
59339;BMP280;45117;50.960;5.500;2023-03-04T13:49:19;101523.34;;;7.99
59339;BMP280;45117;50.960;5.500;2023-03-04T13:51:47;101515.22;;;7.92
59339;BMP280;45117;50.960;5.500;2023-03-04T13:54:16;101515.56;;;7.91
59339;BMP280;45117;50.960;5.500;2023-03-04T13:56:52;101510.34;;;7.78
59339;BMP280;45117;50.960;5.500;2023-03-04T13:59:38;101508.75;;;7.74
59339;BMP280;45117;50.960;5.500;2023-03-04T14:02:12;101513.22;;;7.66
59339;BMP280;45117;50.960;5.500;2023-03-04T14:04:41;101505.59;;;7.68
59339;BMP280;45117;50.960;5.500;2023-03-04T14:07:20;101505.66;;;7.72
59339;BMP280;45117;50.960;5.500;2023-03-04T14:09:53;101502.94;;;7.68
59339;BMP280;45117;50.960;5.500;2023-03-04T14:12:20;101506.56;;;7.60
59339;BMP280;45117;50.960;5.500;2023-03-04T14:14:49;101505.38;;;7.57
59339;BMP280;45117;50.960;5.500;2023-03-04T14:17:21;101497.53;;;7.45
59339;BMP280;45117;50.960;5.500;2023-03-04T14:19:49;101500.63;;;7.47
59339;BMP280;45117;50.960;5.500;2023-03-04T14:22:21;101502.91;;;7.49
59339;BMP280;45117;50.960;5.500;2023-03-04T14:24:59;101503.72;;;7.49
59339;BMP280;45117;50.960;5.500;2023-03-04T14:27:27;101485.00;;;7.49
59339;BMP280;45117;50.960;5.500;2023-03-04T14:29:54;101489.31;;;7.54